Airfield :
LOGIN :

Register | Disclaimer

   EN    FR    IT 

 










Legend :    VFR   Marginal VFR   IFR   Intensive IFR   Very Intensive IFR
Visi :
Ceiling :
>= 8 km
>= 3000ft
5 to 8 km
1000 to 3000 ft
1500m to 5 km
500 to 1000 ft
800 to 1500m
200 to 500 ft
< 800m
< 200 ft
Symbols :   Thunderstorms  Fog  Heavy snow  Heavy precipitations  Wind > 20 kt
SIGMETs :     Misc.  Thunderstorms  Icing  Turbulence  Mountain Waves  Volcanic Ashes







- Airport Elevation : 512 ft
- IATA code : URO
- Download approach charts


LFOP - Rouen Vallée de Seine

CURRENT METAR :
  • 171430Z AUTO 27007KT 220V320 CAVOK 25/07 Q1014 NOSIG

EXPIRED METARs :
  • 171400Z AUTO 29009KT 230V330 CAVOK 25/11 Q1014 NOSIG
  • 171330Z AUTO 29008KT 250V320 CAVOK 25/12 Q1014 NOSIG
  • 171300Z AUTO 30009KT 240V330 CAVOK 26/13 Q1014 NOSIG
  • 171230Z AUTO 23004KT 140V290 CAVOK 26/10 Q1014 NOSIG

TAF TAF LFOP
Valid from the 17 at 12:00 until the 18 at 12:00 UTC


171100Z 1712/1812 24006KT CAVOK
BECMG 1712/1715 30010KT
BECMG 1723/1803 24007KT
PROB30
TEMPO 1801/1806 BKN008
TEMPO 1806/1812 4000 -RA OVC012
ATIS : +33 2 35 80 80 34
Met : +33 2 32 86 52 80
No reported NOTAMs for that airfield.



MET'MAP, your aeronautical weather chart ! - Copyright ORBIFLY December 2007 - Disclaimer

ORBIFLY MET'MAP TEAM :

Programming & Development : Alexandra Zaïnal
Concept & Development : Baudouin d'Aumeries
Co-Development & Prog : Marc-Olivier Méhu
Technical & hardware support : Manuel Goepfert

Contact : metmap@orbifly.com




SOURCES & CREDITS :

   NOAA